Terminal Aerodrome Forecast
Issued by NWS

Home | Current Version | Previous Version | Text Only | Print | Product List | Glossary On
Versions: 1 2 3 4 5 6 7 8 9 10 11 12 13 14 15 16 17 18 19 20 21 22 23 24
336
FTUS46 KMTR 231728
TAFSFO
TAF
KSFO 231728Z 2318/2424 32007KT P6SM FEW013
     FM232100 29015G22KT P6SM SKC
     FM240400 29012KT P6SM SKC
     FM240900 29007KT P6SM FEW012
     FM241200 28006KT P6SM OVC012
     FM241700 31008KT P6SM SCT015
     FM242100 30016KT P6SM SKC=

USA.gov is the U.S. government's official web portal to all federal, state and local government web resources and services.